sensor_id;sensor_type;location;lat;lon;timestamp;temperature;humidity
20233;DHT22;37438;55.674;13.074;2023-04-03T00:01:37;0.00;1.00
20233;DHT22;37438;55.674;13.074;2023-04-03T00:04:42;0.00;29.80
20233;DHT22;37438;55.674;13.074;2023-04-03T00:07:46;-0.10;24.20
20233;DHT22;37438;55.674;13.074;2023-04-03T00:10:51;0.10;37.70
20233;DHT22;37438;55.674;13.074;2023-04-03T00:13:55;0.20;35.80
20233;DHT22;37438;55.674;13.074;2023-04-03T00:17:00;0.30;51.40
20233;DHT22;37438;55.674;13.074;2023-04-03T00:20:04;0.30;54.00
20233;DHT22;37438;55.674;13.074;2023-04-03T00:23:09;0.20;85.00
20233;DHT22;37438;55.674;13.074;2023-04-03T00:26:14;0.10;99.90
20233;DHT22;37438;55.674;13.074;2023-04-03T00:29:19;0.10;99.90
20233;DHT22;37438;55.674;13.074;2023-04-03T00:32:23;0.00;99.90
20233;DHT22;37438;55.674;13.074;2023-04-03T00:35:28;-0.10;99.90
20233;DHT22;37438;55.674;13.074;2023-04-03T00:38:33;-0.10;99.90
20233;DHT22;37438;55.674;13.074;2023-04-03T00:41:38;-0.20;99.90
20233;DHT22;37438;55.674;13.074;2023-04-03T00:47:46;-0.30;99.90
20233;DHT22;37438;55.674;13.074;2023-04-03T00:50:51;-0.30;99.90
20233;DHT22;37438;55.674;13.074;2023-04-03T00:53:57;-0.40;99.90
20233;DHT22;37438;55.674;13.074;2023-04-03T00:57:02;-0.40;99.90
20233;DHT22;37438;55.674;13.074;2023-04-03T01:00:11;-0.50;99.90
20233;DHT22;37438;55.674;13.074;2023-04-03T01:03:16;-0.50;99.90
20233;DHT22;37438;55.674;13.074;2023-04-03T01:06:23;-0.50;99.90
20233;DHT22;37438;55.674;13.074;2023-04-03T01:09:29;-0.60;99.90
20233;DHT22;37438;55.674;13.074;2023-04-03T01:12:35;-0.80;99.90
20233;DHT22;37438;55.674;13.074;2023-04-03T01:15:40;-0.80;99.90
20233;DHT22;37438;55.674;13.074;2023-04-03T01:18:44;-0.90;99.90
20233;DHT22;37438;55.674;13.074;2023-04-03T01:25:12;-1.00;1.00
20233;DHT22;37438;55.674;13.074;2023-04-03T01:28:21;-1.10;1.00
20233;DHT22;37438;55.674;13.074;2023-04-03T01:34:39;-1.20;6.60
20233;DHT22;37438;55.674;13.074;2023-04-03T01:37:44;-1.30;99.90
20233;DHT22;37438;55.674;13.074;2023-04-03T01:40:48;-1.30;99.90
20233;DHT22;37438;55.674;13.074;2023-04-03T01:43:52;-1.40;99.90
20233;DHT22;37438;55.674;13.074;2023-04-03T01:46:56;-1.50;99.90
20233;DHT22;37438;55.674;13.074;2023-04-03T01:50:02;-1.50;99.90
20233;DHT22;37438;55.674;13.074;2023-04-03T01:53:09;-1.60;10.20
20233;DHT22;37438;55.674;13.074;2023-04-03T01:56:14;-1.60;99.90
20233;DHT22;37438;55.674;13.074;2023-04-03T01:59:18;-1.70;36.50
20233;DHT22;37438;55.674;13.074;2023-04-03T02:02:23;-1.70;99.90
20233;DHT22;37438;55.674;13.074;2023-04-03T02:05:29;-1.70;1.00
20233;DHT22;37438;55.674;13.074;2023-04-03T02:08:33;-1.80;99.90
20233;DHT22;37438;55.674;13.074;2023-04-03T02:11:37;-1.80;99.90
20233;DHT22;37438;55.674;13.074;2023-04-03T02:14:42;-1.90;99.90
20233;DHT22;37438;55.674;13.074;2023-04-03T02:17:48;-1.90;1.00
20233;DHT22;37438;55.674;13.074;2023-04-03T02:20:53;-1.90;51.60
20233;DHT22;37438;55.674;13.074;2023-04-03T02:23:58;-1.90;99.90
20233;DHT22;37438;55.674;13.074;2023-04-03T02:27:02;-1.90;99.90
20233;DHT22;37438;55.674;13.074;2023-04-03T02:30:07;-1.90;99.90
20233;DHT22;37438;55.674;13.074;2023-04-03T02:33:13;-2.00;1.00
20233;DHT22;37438;55.674;13.074;2023-04-03T02:36:18;-2.00;1.00
20233;DHT22;37438;55.674;13.074;2023-04-03T02:39:28;-2.10;21.30
20233;DHT22;37438;55.674;13.074;2023-04-03T02:42:34;-2.10;48.80
20233;DHT22;37438;55.674;13.074;2023-04-03T02:45:40;-2.10;96.70
20233;DHT22;37438;55.674;13.074;2023-04-03T02:48:45;-2.20;99.90
20233;DHT22;37438;55.674;13.074;2023-04-03T02:51:49;-2.20;99.90
20233;DHT22;37438;55.674;13.074;2023-04-03T02:54:55;-2.30;99.90
20233;DHT22;37438;55.674;13.074;2023-04-03T02:57:59;-2.30;99.90
20233;DHT22;37438;55.674;13.074;2023-04-03T03:01:04;-2.40;99.90
20233;DHT22;37438;55.674;13.074;2023-04-03T03:04:08;-2.40;99.90
20233;DHT22;37438;55.674;13.074;2023-04-03T03:07:13;-2.40;99.90
20233;DHT22;37438;55.674;13.074;2023-04-03T03:10:17;-2.40;99.90
20233;DHT22;37438;55.674;13.074;2023-04-03T03:13:22;-2.40;99.90
20233;DHT22;37438;55.674;13.074;2023-04-03T03:16:27;-2.50;99.90
20233;DHT22;37438;55.674;13.074;2023-04-03T03:19:33;-2.50;99.90
20233;DHT22;37438;55.674;13.074;2023-04-03T03:22:37;-2.50;99.90
20233;DHT22;37438;55.674;13.074;2023-04-03T03:25:42;-2.50;99.90
20233;DHT22;37438;55.674;13.074;2023-04-03T03:28:47;-2.60;99.90
20233;DHT22;37438;55.674;13.074;2023-04-03T03:31:51;-2.60;99.90
20233;DHT22;37438;55.674;13.074;2023-04-03T03:34:56;-2.60;99.90
20233;DHT22;37438;55.674;13.074;2023-04-03T03:38:01;-2.70;1.00
20233;DHT22;37438;55.674;13.074;2023-04-03T03:41:05;-2.70;1.00
20233;DHT22;37438;55.674;13.074;2023-04-03T03:44:11;-2.90;1.00
20233;DHT22;37438;55.674;13.074;2023-04-03T03:47:18;-2.90;1.00
20233;DHT22;37438;55.674;13.074;2023-04-03T03:50:23;-2.90;1.00
20233;DHT22;37438;55.674;13.074;2023-04-03T03:53:27;-2.90;1.00
20233;DHT22;37438;55.674;13.074;2023-04-03T03:56:35;-2.90;1.00
20233;DHT22;37438;55.674;13.074;2023-04-03T03:59:40;-3.00;1.00
20233;DHT22;37438;55.674;13.074;2023-04-03T04:02:44;-3.00;1.00
20233;DHT22;37438;55.674;13.074;2023-04-03T04:05:53;-3.10;7.30
20233;DHT22;37438;55.674;13.074;2023-04-03T04:08:58;-3.00;3.00
20233;DHT22;37438;55.674;13.074;2023-04-03T04:12:03;-3.00;6.20
20233;DHT22;37438;55.674;13.074;2023-04-03T04:15:09;-3.10;17.90
20233;DHT22;37438;55.674;13.074;2023-04-03T04:18:14;-3.10;33.60
20233;DHT22;37438;55.674;13.074;2023-04-03T04:21:22;-3.20;46.60
20233;DHT22;37438;55.674;13.074;2023-04-03T04:24:28;-3.10;53.40
20233;DHT22;37438;55.674;13.074;2023-04-03T04:27:33;-3.20;44.70
20233;DHT22;37438;55.674;13.074;2023-04-03T04:30:38;-3.30;50.10
20233;DHT22;37438;55.674;13.074;2023-04-03T04:33:43;-3.20;52.80
20233;DHT22;37438;55.674;13.074;2023-04-03T04:36:50;-3.10;56.60
20233;DHT22;37438;55.674;13.074;2023-04-03T04:39:55;-3.10;53.70
20233;DHT22;37438;55.674;13.074;2023-04-03T04:42:59;-3.00;60.40
20233;DHT22;37438;55.674;13.074;2023-04-03T04:46:05;-3.10;46.80
20233;DHT22;37438;55.674;13.074;2023-04-03T04:49:14;-3.10;40.00
20233;DHT22;37438;55.674;13.074;2023-04-03T04:52:19;-3.10;40.80
20233;DHT22;37438;55.674;13.074;2023-04-03T04:55:23;-3.00;38.40
20233;DHT22;37438;55.674;13.074;2023-04-03T04:58:28;-3.00;44.80
20233;DHT22;37438;55.674;13.074;2023-04-03T05:01:33;-3.00;51.90
20233;DHT22;37438;55.674;13.074;2023-04-03T05:04:44;-2.90;56.80
20233;DHT22;37438;55.674;13.074;2023-04-03T05:07:56;-2.70;62.20
20233;DHT22;37438;55.674;13.074;2023-04-03T05:11:00;-2.50;60.20
20233;DHT22;37438;55.674;13.074;2023-04-03T05:14:05;-2.30;66.60
20233;DHT22;37438;55.674;13.074;2023-04-03T05:17:12;-2.20;73.50
20233;DHT22;37438;55.674;13.074;2023-04-03T05:20:20;-2.10;71.80
20233;DHT22;37438;55.674;13.074;2023-04-03T05:23:26;-1.90;62.30
20233;DHT22;37438;55.674;13.074;2023-04-03T05:26:34;-1.70;35.20
20233;DHT22;37438;55.674;13.074;2023-04-03T05:29:38;-1.50;13.70
20233;DHT22;37438;55.674;13.074;2023-04-03T05:32:43;-1.10;1.00
20233;DHT22;37438;55.674;13.074;2023-04-03T05:35:54;-0.70;1.00
20233;DHT22;37438;55.674;13.074;2023-04-03T05:39:03;-0.40;99.90
20233;DHT22;37438;55.674;13.074;2023-04-03T05:42:09;0.00;99.90
20233;DHT22;37438;55.674;13.074;2023-04-03T05:45:15;0.30;99.90
20233;DHT22;37438;55.674;13.074;2023-04-03T05:48:20;0.70;99.90
20233;DHT22;37438;55.674;13.074;2023-04-03T05:51:25;1.10;99.90
20233;DHT22;37438;55.674;13.074;2023-04-03T05:54:35;1.40;99.90
20233;DHT22;37438;55.674;13.074;2023-04-03T05:57:50;1.60;8.80
20233;DHT22;37438;55.674;13.074;2023-04-03T06:00:55;2.00;99.90
20233;DHT22;37438;55.674;13.074;2023-04-03T06:03:59;2.30;99.90
20233;DHT22;37438;55.674;13.074;2023-04-03T06:07:04;2.50;1.00
20233;DHT22;37438;55.674;13.074;2023-04-03T06:10:10;2.70;1.00
20233;DHT22;37438;55.674;13.074;2023-04-03T06:13:15;3.00;99.90
20233;DHT22;37438;55.674;13.074;2023-04-03T06:16:19;3.30;99.90
20233;DHT22;37438;55.674;13.074;2023-04-03T06:19:24;3.70;99.90
20233;DHT22;37438;55.674;13.074;2023-04-03T06:22:32;3.90;99.90
20233;DHT22;37438;55.674;13.074;2023-04-03T06:25:38;4.10;97.70
20233;DHT22;37438;55.674;13.074;2023-04-03T06:28:42;4.40;87.50
20233;DHT22;37438;55.674;13.074;2023-04-03T06:31:47;4.60;21.50
20233;DHT22;37438;55.674;13.074;2023-04-03T06:34:53;4.90;1.00
20233;DHT22;37438;55.674;13.074;2023-04-03T06:37:57;5.10;1.00
20233;DHT22;37438;55.674;13.074;2023-04-03T06:41:01;5.30;5.80
20233;DHT22;37438;55.674;13.074;2023-04-03T06:44:06;5.50;28.20
20233;DHT22;37438;55.674;13.074;2023-04-03T06:47:13;5.80;43.00
20233;DHT22;37438;55.674;13.074;2023-04-03T06:50:17;6.00;10.20
20233;DHT22;37438;55.674;13.074;2023-04-03T06:53:22;6.20;1.00
20233;DHT22;37438;55.674;13.074;2023-04-03T06:56:26;6.40;1.00
20233;DHT22;37438;55.674;13.074;2023-04-03T06:59:31;6.70;99.90
20233;DHT22;37438;55.674;13.074;2023-04-03T07:02:35;7.00;99.90
20233;DHT22;37438;55.674;13.074;2023-04-03T07:05:39;7.10;99.90
20233;DHT22;37438;55.674;13.074;2023-04-03T07:08:44;7.10;99.90
20233;DHT22;37438;55.674;13.074;2023-04-03T07:11:49;7.30;99.90
20233;DHT22;37438;55.674;13.074;2023-04-03T07:14:54;7.40;99.90
20233;DHT22;37438;55.674;13.074;2023-04-03T07:17:58;7.60;99.90
20233;DHT22;37438;55.674;13.074;2023-04-03T07:21:03;7.90;77.50
20233;DHT22;37438;55.674;13.074;2023-04-03T07:24:07;7.80;59.70
20233;DHT22;37438;55.674;13.074;2023-04-03T07:27:17;7.90;60.10
20233;DHT22;37438;55.674;13.074;2023-04-03T07:30:23;8.40;62.30
20233;DHT22;37438;55.674;13.074;2023-04-03T07:33:27;8.60;39.60
20233;DHT22;37438;55.674;13.074;2023-04-03T07:36:31;9.00;19.80
20233;DHT22;37438;55.674;13.074;2023-04-03T07:39:37;9.20;1.00
20233;DHT22;37438;55.674;13.074;2023-04-03T07:42:42;9.50;1.00
20233;DHT22;37438;55.674;13.074;2023-04-03T07:45:48;9.70;1.00
20233;DHT22;37438;55.674;13.074;2023-04-03T07:48:55;9.80;99.90
20233;DHT22;37438;55.674;13.074;2023-04-03T07:52:02;10.00;99.90
20233;DHT22;37438;55.674;13.074;2023-04-03T07:55:06;10.40;99.90
20233;DHT22;37438;55.674;13.074;2023-04-03T07:58:11;10.50;99.90
20233;DHT22;37438;55.674;13.074;2023-04-03T08:01:16;10.80;99.90
20233;DHT22;37438;55.674;13.074;2023-04-03T08:04:20;10.70;99.90
20233;DHT22;37438;55.674;13.074;2023-04-03T08:07:25;10.90;99.90
20233;DHT22;37438;55.674;13.074;2023-04-03T08:10:30;11.00;99.90
20233;DHT22;37438;55.674;13.074;2023-04-03T08:13:34;11.10;93.30
20233;DHT22;37438;55.674;13.074;2023-04-03T08:16:39;11.20;91.70
20233;DHT22;37438;55.674;13.074;2023-04-03T08:19:44;11.30;80.70
20233;DHT22;37438;55.674;13.074;2023-04-03T08:22:48;11.30;79.20
20233;DHT22;37438;55.674;13.074;2023-04-03T08:25:53;11.50;79.60
20233;DHT22;37438;55.674;13.074;2023-04-03T08:28:57;11.70;76.30
20233;DHT22;37438;55.674;13.074;2023-04-03T08:32:02;12.10;74.20
20233;DHT22;37438;55.674;13.074;2023-04-03T08:35:07;12.50;71.60
20233;DHT22;37438;55.674;13.074;2023-04-03T08:38:11;12.40;69.60
20233;DHT22;37438;55.674;13.074;2023-04-03T08:47:38;12.50;66.50
20233;DHT22;37438;55.674;13.074;2023-04-03T08:50:43;13.00;64.50
20233;DHT22;37438;55.674;13.074;2023-04-03T08:53:54;13.00;62.40
20233;DHT22;37438;55.674;13.074;2023-04-03T08:57:01;13.00;60.90
20233;DHT22;37438;55.674;13.074;2023-04-03T09:03:19;13.30;56.50
20233;DHT22;37438;55.674;13.074;2023-04-03T09:06:26;13.20;46.80
20233;DHT22;37438;55.674;13.074;2023-04-03T09:12:44;12.70;42.60
20233;DHT22;37438;55.674;13.074;2023-04-03T09:15:51;13.30;41.80
20233;DHT22;37438;55.674;13.074;2023-04-03T09:22:31;12.90;40.10
20233;DHT22;37438;55.674;13.074;2023-04-03T09:25:42;13.60;39.40
20233;DHT22;37438;55.674;13.074;2023-04-03T09:28:48;13.60;36.80
20233;DHT22;37438;55.674;13.074;2023-04-03T09:32:11;13.60;34.00
20233;DHT22;37438;55.674;13.074;2023-04-03T09:35:19;14.40;33.50
20233;DHT22;37438;55.674;13.074;2023-04-03T09:38:39;14.90;32.40
20233;DHT22;37438;55.674;13.074;2023-04-03T09:45:04;14.70;29.70
20233;DHT22;37438;55.674;13.074;2023-04-03T09:51:19;15.20;30.00
20233;DHT22;37438;55.674;13.074;2023-04-03T09:54:38;14.90;28.30
20233;DHT22;37438;55.674;13.074;2023-04-03T09:57:45;15.30;21.80
20233;DHT22;37438;55.674;13.074;2023-04-03T10:01:00;14.70;14.30
20233;DHT22;37438;55.674;13.074;2023-04-03T10:04:09;14.80;14.00
20233;DHT22;37438;55.674;13.074;2023-04-03T10:10:31;15.60;9.60
20233;DHT22;37438;55.674;13.074;2023-04-03T10:13:35;15.20;10.10
20233;DHT22;37438;55.674;13.074;2023-04-03T10:20:07;16.50;8.00
20233;DHT22;37438;55.674;13.074;2023-04-03T10:26:52;17.20;5.60
20233;DHT22;37438;55.674;13.074;2023-04-03T10:30:01;16.60;5.40
20233;DHT22;37438;55.674;13.074;2023-04-03T10:39:33;16.10;3.50
20233;DHT22;37438;55.674;13.074;2023-04-03T10:42:53;17.10;3.70
20233;DHT22;37438;55.674;13.074;2023-04-03T10:59:25;16.70;1.00
20233;DHT22;37438;55.674;13.074;2023-04-03T11:02:33;17.30;1.00
20233;DHT22;37438;55.674;13.074;2023-04-03T11:05:48;17.20;1.00
20233;DHT22;37438;55.674;13.074;2023-04-03T11:08:59;17.00;1.00
20233;DHT22;37438;55.674;13.074;2023-04-03T11:12:13;17.20;1.00
20233;DHT22;37438;55.674;13.074;2023-04-03T11:15:19;17.40;1.00
20233;DHT22;37438;55.674;13.074;2023-04-03T11:22:01;16.30;1.00
20233;DHT22;37438;55.674;13.074;2023-04-03T11:28:15;14.90;1.00
20233;DHT22;37438;55.674;13.074;2023-04-03T11:31:42;15.20;1.00
20233;DHT22;37438;55.674;13.074;2023-04-03T11:34:50;15.20;1.00
20233;DHT22;37438;55.674;13.074;2023-04-03T11:37:57;16.70;1.00
20233;DHT22;37438;55.674;13.074;2023-04-03T11:41:04;16.20;1.00
20233;DHT22;37438;55.674;13.074;2023-04-03T11:47:47;17.50;1.00
20233;DHT22;37438;55.674;13.074;2023-04-03T11:50:52;18.70;1.00
20233;DHT22;37438;55.674;13.074;2023-04-03T11:54:10;18.30;1.00
20233;DHT22;37438;55.674;13.074;2023-04-03T11:57:42;17.50;1.00
20233;DHT22;37438;55.674;13.074;2023-04-03T12:00:49;14.60;1.00
20233;DHT22;37438;55.674;13.074;2023-04-03T12:03:57;14.10;1.00
20233;DHT22;37438;55.674;13.074;2023-04-03T12:07:16;15.10;1.00
20233;DHT22;37438;55.674;13.074;2023-04-03T12:10:21;15.90;1.00
20233;DHT22;37438;55.674;13.074;2023-04-03T12:16:58;15.90;1.00
20233;DHT22;37438;55.674;13.074;2023-04-03T12:20:40;15.20;1.00
20233;DHT22;37438;55.674;13.074;2023-04-03T12:23:33;14.50;1.00
20233;DHT22;37438;55.674;13.074;2023-04-03T12:26:48;16.10;1.00
20233;DHT22;37438;55.674;13.074;2023-04-03T12:33:13;14.30;1.00
20233;DHT22;37438;55.674;13.074;2023-04-03T12:36:25;14.50;1.00
20233;DHT22;37438;55.674;13.074;2023-04-03T12:46:02;15.10;1.00
20233;DHT22;37438;55.674;13.074;2023-04-03T12:52:44;15.00;1.00
20233;DHT22;37438;55.674;13.074;2023-04-03T12:55:53;16.10;1.00
20233;DHT22;37438;55.674;13.074;2023-04-03T12:59:32;17.10;1.00
20233;DHT22;37438;55.674;13.074;2023-04-03T13:02:30;18.00;1.00
20233;DHT22;37438;55.674;13.074;2023-04-03T13:05:34;17.70;1.00
20233;DHT22;37438;55.674;13.074;2023-04-03T13:08:48;16.90;1.00
20233;DHT22;37438;55.674;13.074;2023-04-03T13:12:00;17.10;1.00
20233;DHT22;37438;55.674;13.074;2023-04-03T13:15:12;17.70;1.00
20233;DHT22;37438;55.674;13.074;2023-04-03T13:18:24;18.00;1.00
20233;DHT22;37438;55.674;13.074;2023-04-03T13:21:30;18.70;1.00
20233;DHT22;37438;55.674;13.074;2023-04-03T13:24:36;13.50;1.00
20233;DHT22;37438;55.674;13.074;2023-04-03T13:27:42;15.20;1.00
20233;DHT22;37438;55.674;13.074;2023-04-03T13:31:01;13.60;1.00
20233;DHT22;37438;55.674;13.074;2023-04-03T13:34:09;11.90;1.00
20233;DHT22;37438;55.674;13.074;2023-04-03T13:37:22;12.80;1.00
20233;DHT22;37438;55.674;13.074;2023-04-03T13:40:27;14.10;1.00
20233;DHT22;37438;55.674;13.074;2023-04-03T13:43:41;12.00;1.00
20233;DHT22;37438;55.674;13.074;2023-04-03T13:46:47;11.10;1.00
20233;DHT22;37438;55.674;13.074;2023-04-03T13:49:59;10.60;1.00
20233;DHT22;37438;55.674;13.074;2023-04-03T13:53:13;11.70;1.00
20233;DHT22;37438;55.674;13.074;2023-04-03T13:56:19;11.90;1.00
20233;DHT22;37438;55.674;13.074;2023-04-03T13:59:27;10.30;1.00
20233;DHT22;37438;55.674;13.074;2023-04-03T14:02:32;10.60;1.00
20233;DHT22;37438;55.674;13.074;2023-04-03T14:05:37;11.80;1.00
20233;DHT22;37438;55.674;13.074;2023-04-03T14:08:42;10.70;1.00
20233;DHT22;37438;55.674;13.074;2023-04-03T14:11:48;10.50;1.00
20233;DHT22;37438;55.674;13.074;2023-04-03T14:14:53;11.60;1.00
20233;DHT22;37438;55.674;13.074;2023-04-03T14:17:57;11.70;1.00
20233;DHT22;37438;55.674;13.074;2023-04-03T14:21:04;12.50;1.00
20233;DHT22;37438;55.674;13.074;2023-04-03T14:24:08;12.20;1.00
20233;DHT22;37438;55.674;13.074;2023-04-03T14:27:15;13.40;1.00
20233;DHT22;37438;55.674;13.074;2023-04-03T14:33:25;11.20;1.00
20233;DHT22;37438;55.674;13.074;2023-04-03T14:36:32;11.40;1.00
20233;DHT22;37438;55.674;13.074;2023-04-03T14:39:37;10.60;1.00
20233;DHT22;37438;55.674;13.074;2023-04-03T14:42:41;11.10;1.00
20233;DHT22;37438;55.674;13.074;2023-04-03T14:45:46;9.80;1.00
20233;DHT22;37438;55.674;13.074;2023-04-03T14:48:50;10.30;1.00
20233;DHT22;37438;55.674;13.074;2023-04-03T14:51:55;11.00;1.00
20233;DHT22;37438;55.674;13.074;2023-04-03T14:55:00;12.30;1.00
20233;DHT22;37438;55.674;13.074;2023-04-03T14:58:04;12.10;1.00
20233;DHT22;37438;55.674;13.074;2023-04-03T15:01:10;11.30;1.00
20233;DHT22;37438;55.674;13.074;2023-04-03T15:04:17;11.20;1.00
20233;DHT22;37438;55.674;13.074;2023-04-03T15:07:22;12.80;1.00
20233;DHT22;37438;55.674;13.074;2023-04-03T15:10:27;14.10;1.00
20233;DHT22;37438;55.674;13.074;2023-04-03T15:13:32;13.30;1.00
20233;DHT22;37438;55.674;13.074;2023-04-03T15:16:37;13.40;1.00
20233;DHT22;37438;55.674;13.074;2023-04-03T15:19:41;12.50;1.00
20233;DHT22;37438;55.674;13.074;2023-04-03T15:22:46;13.70;1.00
20233;DHT22;37438;55.674;13.074;2023-04-03T15:25:50;13.60;1.00
20233;DHT22;37438;55.674;13.074;2023-04-03T15:28:55;14.50;1.00
20233;DHT22;37438;55.674;13.074;2023-04-03T15:32:00;13.90;1.00
20233;DHT22;37438;55.674;13.074;2023-04-03T15:35:05;15.90;1.00
20233;DHT22;37438;55.674;13.074;2023-04-03T15:38:09;16.00;1.00
20233;DHT22;37438;55.674;13.074;2023-04-03T15:41:14;16.70;1.00
20233;DHT22;37438;55.674;13.074;2023-04-03T15:44:19;16.60;1.00
20233;DHT22;37438;55.674;13.074;2023-04-03T15:47:24;15.90;1.00
20233;DHT22;37438;55.674;13.074;2023-04-03T15:50:29;15.10;1.00
20233;DHT22;37438;55.674;13.074;2023-04-03T15:53:33;13.80;1.00
20233;DHT22;37438;55.674;13.074;2023-04-03T15:56:37;13.50;1.00
20233;DHT22;37438;55.674;13.074;2023-04-03T15:59:41;15.60;1.00
20233;DHT22;37438;55.674;13.074;2023-04-03T16:02:46;14.80;1.00
20233;DHT22;37438;55.674;13.074;2023-04-03T16:05:51;13.20;1.00
20233;DHT22;37438;55.674;13.074;2023-04-03T16:08:56;14.50;1.00
20233;DHT22;37438;55.674;13.074;2023-04-03T16:12:02;14.00;1.00
20233;DHT22;37438;55.674;13.074;2023-04-03T16:15:06;14.40;1.00
20233;DHT22;37438;55.674;13.074;2023-04-03T16:18:10;13.70;1.00
20233;DHT22;37438;55.674;13.074;2023-04-03T16:21:16;12.90;1.00
20233;DHT22;37438;55.674;13.074;2023-04-03T16:24:21;13.00;1.00
20233;DHT22;37438;55.674;13.074;2023-04-03T16:27:25;12.20;1.00
20233;DHT22;37438;55.674;13.074;2023-04-03T16:30:32;13.30;1.00
20233;DHT22;37438;55.674;13.074;2023-04-03T16:33:36;12.70;1.00
20233;DHT22;37438;55.674;13.074;2023-04-03T16:36:41;12.90;1.00
20233;DHT22;37438;55.674;13.074;2023-04-03T16:39:46;11.60;1.00
20233;DHT22;37438;55.674;13.074;2023-04-03T16:42:50;11.70;1.00
20233;DHT22;37438;55.674;13.074;2023-04-03T16:45:55;10.30;1.50
20233;DHT22;37438;55.674;13.074;2023-04-03T16:49:00;9.80;3.10
20233;DHT22;37438;55.674;13.074;2023-04-03T16:52:04;8.20;5.90
20233;DHT22;37438;55.674;13.074;2023-04-03T16:55:09;6.50;15.60
20233;DHT22;37438;55.674;13.074;2023-04-03T16:58:14;6.10;24.40
20233;DHT22;37438;55.674;13.074;2023-04-03T17:01:20;6.00;29.40
20233;DHT22;37438;55.674;13.074;2023-04-03T17:04:24;5.90;29.70
20233;DHT22;37438;55.674;13.074;2023-04-03T17:07:29;5.70;36.90
20233;DHT22;37438;55.674;13.074;2023-04-03T17:10:33;5.60;73.30
20233;DHT22;37438;55.674;13.074;2023-04-03T17:13:39;5.40;83.30
20233;DHT22;37438;55.674;13.074;2023-04-03T17:16:44;5.40;89.90
20233;DHT22;37438;55.674;13.074;2023-04-03T17:19:48;5.50;85.00
20233;DHT22;37438;55.674;13.074;2023-04-03T17:22:53;5.50;79.90
20233;DHT22;37438;55.674;13.074;2023-04-03T17:25:58;5.10;99.90
20233;DHT22;37438;55.674;13.074;2023-04-03T17:29:02;4.90;99.90
20233;DHT22;37438;55.674;13.074;2023-04-03T17:32:06;4.90;99.90
20233;DHT22;37438;55.674;13.074;2023-04-03T17:35:11;4.80;99.90
20233;DHT22;37438;55.674;13.074;2023-04-03T17:38:15;4.80;99.90
20233;DHT22;37438;55.674;13.074;2023-04-03T17:41:20;4.70;99.90
20233;DHT22;37438;55.674;13.074;2023-04-03T17:44:24;4.70;99.90
20233;DHT22;37438;55.674;13.074;2023-04-03T17:47:29;4.60;99.90
20233;DHT22;37438;55.674;13.074;2023-04-03T17:50:33;4.60;99.90
20233;DHT22;37438;55.674;13.074;2023-04-03T17:53:40;4.50;99.90
20233;DHT22;37438;55.674;13.074;2023-04-03T17:56:46;4.40;99.90
20233;DHT22;37438;55.674;13.074;2023-04-03T17:59:51;4.40;99.90
20233;DHT22;37438;55.674;13.074;2023-04-03T18:02:57;4.40;99.90
20233;DHT22;37438;55.674;13.074;2023-04-03T18:06:03;4.40;99.90
20233;DHT22;37438;55.674;13.074;2023-04-03T18:09:09;4.30;99.90
20233;DHT22;37438;55.674;13.074;2023-04-03T18:12:14;4.30;99.90
20233;DHT22;37438;55.674;13.074;2023-04-03T18:15:18;4.20;99.90
20233;DHT22;37438;55.674;13.074;2023-04-03T18:18:23;4.20;99.90
20233;DHT22;37438;55.674;13.074;2023-04-03T18:21:27;4.10;99.90
20233;DHT22;37438;55.674;13.074;2023-04-03T18:24:32;4.00;99.90
20233;DHT22;37438;55.674;13.074;2023-04-03T18:27:37;4.00;99.90
20233;DHT22;37438;55.674;13.074;2023-04-03T18:30:41;3.90;99.90
20233;DHT22;37438;55.674;13.074;2023-04-03T18:33:46;3.90;99.90
20233;DHT22;37438;55.674;13.074;2023-04-03T18:36:52;3.90;99.90
20233;DHT22;37438;55.674;13.074;2023-04-03T18:39:57;3.80;99.90
20233;DHT22;37438;55.674;13.074;2023-04-03T18:43:01;3.60;99.90
20233;DHT22;37438;55.674;13.074;2023-04-03T18:46:06;3.60;99.90
20233;DHT22;37438;55.674;13.074;2023-04-03T18:49:10;3.50;99.90
20233;DHT22;37438;55.674;13.074;2023-04-03T18:52:15;3.30;99.90
20233;DHT22;37438;55.674;13.074;2023-04-03T18:55:19;3.30;99.90
20233;DHT22;37438;55.674;13.074;2023-04-03T18:58:23;3.20;99.90
20233;DHT22;37438;55.674;13.074;2023-04-03T19:01:27;3.10;99.90
20233;DHT22;37438;55.674;13.074;2023-04-03T19:04:32;3.00;99.90
20233;DHT22;37438;55.674;13.074;2023-04-03T19:07:36;3.00;99.90
20233;DHT22;37438;55.674;13.074;2023-04-03T19:10:40;2.90;99.90
20233;DHT22;37438;55.674;13.074;2023-04-03T19:13:44;2.80;99.90
20233;DHT22;37438;55.674;13.074;2023-04-03T19:17:10;2.80;99.90
20233;DHT22;37438;55.674;13.074;2023-04-03T19:20:14;2.70;99.90
20233;DHT22;37438;55.674;13.074;2023-04-03T19:23:19;2.70;99.90
20233;DHT22;37438;55.674;13.074;2023-04-03T19:26:23;2.50;99.90
20233;DHT22;37438;55.674;13.074;2023-04-03T19:29:27;2.50;99.90
20233;DHT22;37438;55.674;13.074;2023-04-03T19:32:31;2.60;99.90
20233;DHT22;37438;55.674;13.074;2023-04-03T19:35:38;2.40;99.90
20233;DHT22;37438;55.674;13.074;2023-04-03T19:38:42;2.40;99.90
20233;DHT22;37438;55.674;13.074;2023-04-03T19:41:46;2.40;99.90
20233;DHT22;37438;55.674;13.074;2023-04-03T19:44:51;2.20;99.90
20233;DHT22;37438;55.674;13.074;2023-04-03T19:47:55;2.40;99.90
20233;DHT22;37438;55.674;13.074;2023-04-03T19:51:04;2.50;99.90
20233;DHT22;37438;55.674;13.074;2023-04-03T19:54:09;2.60;99.90
20233;DHT22;37438;55.674;13.074;2023-04-03T19:57:14;2.70;1.00
20233;DHT22;37438;55.674;13.074;2023-04-03T20:00:18;2.70;1.00
20233;DHT22;37438;55.674;13.074;2023-04-03T20:03:23;2.90;1.00
20233;DHT22;37438;55.674;13.074;2023-04-03T20:06:28;3.00;8.30
20233;DHT22;37438;55.674;13.074;2023-04-03T20:09:32;3.00;99.90
20233;DHT22;37438;55.674;13.074;2023-04-03T20:12:37;2.90;99.90
20233;DHT22;37438;55.674;13.074;2023-04-03T20:15:42;2.80;99.90
20233;DHT22;37438;55.674;13.074;2023-04-03T20:18:47;2.80;99.90
20233;DHT22;37438;55.674;13.074;2023-04-03T20:21:55;2.90;99.90
20233;DHT22;37438;55.674;13.074;2023-04-03T20:25:02;2.80;99.90
20233;DHT22;37438;55.674;13.074;2023-04-03T20:28:10;2.80;99.90
20233;DHT22;37438;55.674;13.074;2023-04-03T20:31:15;2.80;99.90
20233;DHT22;37438;55.674;13.074;2023-04-03T20:34:21;2.80;99.90
20233;DHT22;37438;55.674;13.074;2023-04-03T20:37:26;2.90;99.90
20233;DHT22;37438;55.674;13.074;2023-04-03T20:40:31;2.80;99.90
20233;DHT22;37438;55.674;13.074;2023-04-03T20:43:36;3.00;99.90
20233;DHT22;37438;55.674;13.074;2023-04-03T20:46:43;2.90;99.90
20233;DHT22;37438;55.674;13.074;2023-04-03T20:49:57;2.90;99.90
20233;DHT22;37438;55.674;13.074;2023-04-03T20:53:02;2.80;99.90
20233;DHT22;37438;55.674;13.074;2023-04-03T20:56:07;2.80;99.90
20233;DHT22;37438;55.674;13.074;2023-04-03T20:59:12;2.90;99.90
20233;DHT22;37438;55.674;13.074;2023-04-03T21:02:17;2.80;99.90
20233;DHT22;37438;55.674;13.074;2023-04-03T21:05:21;2.80;99.90